Time;durP1;ratioP1;P1;durP2;ratioP2;P2;SDS_P1;SDS_P2;PMS_P1;PMS_P2;Temp;Humidity;BMP_temperature;BMP_pressure;BME280_temperature;BME280_humidity;BME280_pressure;Samples;Min_cycle;Max_cycle;Signal;HPM_P1;HPM_P2
2022/01/10 00:01:48;;;;;;;10.57;6.45;;;;;;;;;;5049889;28;20098;-57
2022/01/10 00:04:15;;;;;;;12.07;6.03;;;;;;;;;;5050680;28;20080;-57
2022/01/10 00:06:41;;;;;;;11.02;6.22;;;;;;;;;;5051016;28;20393;-57
2022/01/10 00:09:07;;;;;;;10.57;6.47;;;;;;;;;;5050044;28;20052;-57
2022/01/10 00:11:33;;;;;;;11.07;5.97;;;;;;;;;;5050903;28;20454;-57
2022/01/10 00:14:00;;;;;;;11.00;5.97;;;;;;;;;;5050391;28;20447;-57
2022/01/10 00:16:26;;;;;;;10.07;6.22;;;;;;;;;;5049944;28;20041;-57
2022/01/10 00:18:54;;;;;;;8.73;5.72;;;;;;;;;;5050543;28;20055;-57
2022/01/10 00:21:20;;;;;;;10.48;6.32;;;;;;;;;;5054351;28;20091;-57
2022/01/10 00:23:46;;;;;;;9.50;5.97;;;;;;;;;;5053527;28;20052;-57
2022/01/10 00:26:12;;;;;;;11.82;6.07;;;;;;;;;;5054615;28;20045;-58
2022/01/10 00:28:38;;;;;;;11.30;6.20;;;;;;;;;;5053648;28;20056;-57
2022/01/10 00:31:05;;;;;;;9.75;5.78;;;;;;;;;;5054063;28;20553;-57
2022/01/10 00:33:31;;;;;;;10.80;5.90;;;;;;;;;;5054538;28;20076;-57
2022/01/10 00:35:58;;;;;;;8.85;5.32;;;;;;;;;;5053449;28;20083;-57
2022/01/10 00:38:25;;;;;;;8.70;6.25;;;;;;;;;;5054245;28;20549;-57
2022/01/10 00:40:51;;;;;;;8.70;5.70;;;;;;;;;;5053938;28;20049;-58
2022/01/10 00:43:28;;;;;;;8.75;5.30;;;;;;;;;;5053397;28;20051;-57
2022/01/10 00:45:54;;;;;;;9.45;5.80;;;;;;;;;;5054073;28;20052;-57
2022/01/10 00:48:21;;;;;;;9.55;6.03;;;;;;;;;;5054210;28;20053;-57
2022/01/10 00:50:47;;;;;;;7.93;5.70;;;;;;;;;;5052915;28;20045;-57
2022/01/10 00:53:17;;;;;;;9.38;6.07;;;;;;;;;;5054052;28;20048;-57
2022/01/10 00:55:43;;;;;;;9.20;5.70;;;;;;;;;;5053533;28;20122;-57
2022/01/10 00:58:09;;;;;;;9.55;5.93;;;;;;;;;;5053269;28;20446;-57
2022/01/10 01:00:35;;;;;;;10.77;5.70;;;;;;;;;;5053909;28;20103;-57
2022/01/10 01:03:02;;;;;;;12.88;6.65;;;;;;;;;;5053859;28;20501;-58
2022/01/10 01:05:30;;;;;;;11.48;6.07;;;;;;;;;;5052799;28;20052;-57
2022/01/10 01:07:58;;;;;;;12.20;6.38;;;;;;;;;;5053517;28;20045;-57
2022/01/10 01:13:24;;;;;;;8.98;5.78;;;;;;;;;;5042902;28;20577;-58
2022/01/10 01:16:08;;;;;;;9.18;6.30;;;;;;;;;;5053446;28;20408;-58
2022/01/10 01:19:02;;;;;;;9.82;6.05;;;;;;;;;;5052825;28;20102;-58
2022/01/10 01:24:12;;;;;;;9.82;6.22;;;;;;;;;;5053638;28;20810;-58
2022/01/10 01:26:41;;;;;;;9.80;6.00;;;;;;;;;;5052712;28;20045;-57
2022/01/10 01:29:08;;;;;;;9.38;6.28;;;;;;;;;;5053255;28;20103;-58
2022/01/10 01:31:35;;;;;;;12.45;6.47;;;;;;;;;;5051811;28;20561;-57
2022/01/10 01:34:01;;;;;;;10.32;6.68;;;;;;;;;;5052574;28;20052;-57
2022/01/10 01:36:29;;;;;;;11.23;6.40;;;;;;;;;;5053073;28;20107;-57
2022/01/10 01:38:56;;;;;;;13.27;6.35;;;;;;;;;;5052541;28;20072;-58
2022/01/10 01:41:35;;;;;;;8.05;5.85;;;;;;;;;;5053025;28;20052;-57
2022/01/10 01:44:03;;;;;;;11.02;6.22;;;;;;;;;;5052829;28;20135;-58
2022/01/10 01:46:30;;;;;;;9.98;6.63;;;;;;;;;;5052209;28;20053;-57
2022/01/10 01:48:56;;;;;;;11.52;6.30;;;;;;;;;;5052439;28;20056;-57
2022/01/10 01:51:23;;;;;;;9.90;6.32;;;;;;;;;;5052929;28;20045;-57
2022/01/10 01:53:50;;;;;;;12.00;6.93;;;;;;;;;;5051819;28;20044;-57
2022/01/10 01:56:18;;;;;;;11.13;6.25;;;;;;;;;;5052566;28;20049;-57
2022/01/10 01:58:44;;;;;;;9.95;6.60;;;;;;;;;;5052792;28;20466;-57
2022/01/10 02:01:16;;;;;;;8.52;6.45;;;;;;;;;;5051987;28;20476;-57
2022/01/10 02:03:42;;;;;;;10.95;6.63;;;;;;;;;;5052720;28;20101;-58
2022/01/10 02:06:09;;;;;;;12.07;6.95;;;;;;;;;;5052418;28;20053;-57
2022/01/10 02:08:36;;;;;;;11.88;6.95;;;;;;;;;;5051884;28;20103;-57
2022/01/10 02:11:02;;;;;;;11.07;6.68;;;;;;;;;;5052582;28;20053;-57
2022/01/10 02:13:28;;;;;;;11.40;7.00;;;;;;;;;;5052529;28;20049;-57
2022/01/10 02:15:57;;;;;;;11.25;7.13;;;;;;;;;;5051664;28;20053;-57
2022/01/10 02:18:25;;;;;;;9.40;6.25;;;;;;;;;;5052388;28;20128;-57
2022/01/10 02:20:52;;;;;;;9.15;6.35;;;;;;;;;;5052219;28;20045;-57
2022/01/10 02:23:19;;;;;;;13.70;6.97;;;;;;;;;;5051415;28;20049;-57
2022/01/10 02:25:46;;;;;;;8.90;6.57;;;;;;;;;;5052028;28;20541;-58
2022/01/10 02:28:12;;;;;;;11.43;6.63;;;;;;;;;;5051524;28;20106;-58
2022/01/10 02:30:39;;;;;;;11.77;6.32;;;;;;;;;;5052379;28;20110;-58
2022/01/10 02:33:05;;;;;;;9.50;6.45;;;;;;;;;;5051803;28;20100;-57
2022/01/10 02:35:35;;;;;;;10.68;6.15;;;;;;;;;;5051522;28;20045;-58
2022/01/10 02:38:03;;;;;;;10.23;6.18;;;;;;;;;;5051594;28;20682;-58
2022/01/10 02:40:31;;;;;;;10.13;6.97;;;;;;;;;;5052205;28;20045;-58
2022/01/10 02:42:58;;;;;;;11.63;7.05;;;;;;;;;;5050509;28;20135;-58
2022/01/10 02:45:24;;;;;;;10.70;6.60;;;;;;;;;;5052076;28;20470;-58
2022/01/10 02:47:51;;;;;;;10.82;6.20;;;;;;;;;;5051439;28;20044;-58
2022/01/10 02:50:18;;;;;;;10.23;6.40;;;;;;;;;;5051149;28;20099;-58
2022/01/10 02:52:44;;;;;;;11.18;6.90;;;;;;;;;;5051327;28;20053;-58
2022/01/10 02:55:13;;;;;;;11.35;6.63;;;;;;;;;;5051927;28;20095;-58
2022/01/10 02:57:39;;;;;;;8.57;6.25;;;;;;;;;;5051116;28;20098;-58
2022/01/10 03:00:08;;;;;;;8.48;6.13;;;;;;;;;;5051197;28;20057;-58
2022/01/10 03:02:35;;;;;;;7.95;5.78;;;;;;;;;;5051685;28;20154;-58
2022/01/10 03:05:01;;;;;;;11.63;6.53;;;;;;;;;;5050379;28;20057;-58
2022/01/10 03:07:28;;;;;;;9.77;6.60;;;;;;;;;;5051711;28;20048;-58
2022/01/10 03:09:54;;;;;;;10.15;6.63;;;;;;;;;;5051194;28;20055;-58
2022/01/10 03:12:22;;;;;;;8.00;5.97;;;;;;;;;;5050860;28;20049;-58
2022/01/10 03:14:48;;;;;;;9.75;6.30;;;;;;;;;;5051011;28;20549;-58
2022/01/10 03:17:15;;;;;;;9.43;6.30;;;;;;;;;;5051403;28;20049;-58
2022/01/10 03:19:42;;;;;;;10.15;6.70;;;;;;;;;;5050396;28;20041;-58
2022/01/10 03:22:09;;;;;;;9.43;6.53;;;;;;;;;;5051556;28;20095;-58
2022/01/10 03:24:35;;;;;;;9.57;6.40;;;;;;;;;;5050515;28;20045;-58
2022/01/10 03:27:01;;;;;;;9.65;6.50;;;;;;;;;;5051047;28;20110;-57
2022/01/10 03:29:29;;;;;;;11.73;6.60;;;;;;;;;;5050906;28;20454;-58
2022/01/10 03:31:55;;;;;;;10.38;6.88;;;;;;;;;;5050083;28;20091;-58
2022/01/10 03:34:21;;;;;;;9.68;6.82;;;;;;;;;;5050918;28;20114;-58
2022/01/10 03:36:48;;;;;;;10.23;6.72;;;;;;;;;;5050928;28;20041;-58
2022/01/10 03:39:14;;;;;;;8.82;6.22;;;;;;;;;;5050286;28;20045;-58
2022/01/10 03:41:41;;;;;;;9.88;6.28;;;;;;;;;;5051220;28;20110;-57
2022/01/10 03:44:07;;;;;;;9.88;6.65;;;;;;;;;;5050909;28;20053;-58
2022/01/10 03:46:35;;;;;;;10.05;6.45;;;;;;;;;;5050241;28;20103;-58
2022/01/10 03:49:01;;;;;;;10.85;6.70;;;;;;;;;;5050320;28;20738;-58
2022/01/10 03:51:28;;;;;;;11.45;6.22;;;;;;;;;;5051028;28;20053;-58
2022/01/10 03:53:54;;;;;;;9.55;6.47;;;;;;;;;;5050026;28;20099;-58
2022/01/10 03:56:22;;;;;;;11.35;6.32;;;;;;;;;;5054516;28;20103;-57
2022/01/10 03:58:49;;;;;;;8.77;6.57;;;;;;;;;;5054799;28;20045;-58
2022/01/10 04:01:15;;;;;;;11.02;7.07;;;;;;;;;;5053932;28;20053;-58
2022/01/10 04:03:43;;;;;;;11.27;6.40;;;;;;;;;;5055123;28;20048;-57
2022/01/10 04:06:09;;;;;;;10.38;6.43;;;;;;;;;;5054508;28;20053;-57
2022/01/10 04:08:35;;;;;;;9.35;6.28;;;;;;;;;;5054164;28;20450;-57
2022/01/10 04:11:02;;;;;;;9.73;6.53;;;;;;;;;;5054514;28;20098;-59
2022/01/10 04:13:28;;;;;;;12.38;7.50;;;;;;;;;;5054860;28;20045;-58
2022/01/10 04:15:54;;;;;;;10.48;7.28;;;;;;;;;;5053546;28;20049;-58
2022/01/10 04:18:21;;;;;;;11.07;7.28;;;;;;;;;;5054884;28;20053;-58
2022/01/10 04:20:48;;;;;;;9.40;7.00;;;;;;;;;;5053626;28;20049;-58
2022/01/10 04:23:15;;;;;;;10.38;6.75;;;;;;;;;;5054734;28;20041;-58
2022/01/10 04:25:41;;;;;;;12.25;7.15;;;;;;;;;;5054277;28;20074;-58
2022/01/10 04:28:08;;;;;;;10.50;7.15;;;;;;;;;;5053783;28;20484;-58
2022/01/10 04:30:35;;;;;;;12.48;8.02;;;;;;;;;;5054345;28;20049;-57
2022/01/10 04:33:02;;;;;;;12.38;7.55;;;;;;;;;;5054351;28;20049;-57
2022/01/10 04:35:28;;;;;;;9.40;7.20;;;;;;;;;;5053609;28;20049;-57
2022/01/10 04:37:56;;;;;;;10.52;7.78;;;;;;;;;;5054107;28;20488;-58
2022/01/10 04:40:23;;;;;;;10.55;7.35;;;;;;;;;;5054212;28;20048;-58
2022/01/10 04:42:50;;;;;;;10.45;7.10;;;;;;;;;;5053246;28;20044;-58
2022/01/10 04:45:16;;;;;;;10.95;7.25;;;;;;;;;;5054312;28;20045;-57
2022/01/10 04:47:42;;;;;;;9.73;7.18;;;;;;;;;;5053890;28;20045;-57
2022/01/10 04:50:33;;;;;;;11.82;7.85;;;;;;;;;;5053065;28;20049;-57
2022/01/10 04:53:01;;;;;;;9.32;7.88;;;;;;;;;;5053866;28;20392;-57
2022/01/10 04:55:27;;;;;;;13.63;7.70;;;;;;;;;;5053829;28;20072;-57
2022/01/10 04:57:53;;;;;;;12.07;8.10;;;;;;;;;;5053077;28;20110;-57
2022/01/10 05:00:20;;;;;;;13.95;7.88;;;;;;;;;;5054058;28;20454;-57
2022/01/10 05:02:48;;;;;;;12.75;8.27;;;;;;;;;;5053559;28;20128;-57
2022/01/10 05:05:14;;;;;;;11.25;8.00;;;;;;;;;;5052736;28;20049;-57
2022/01/10 05:07:40;;;;;;;11.55;8.20;;;;;;;;;;5053649;28;20099;-57
2022/01/10 05:10:08;;;;;;;11.65;8.27;;;;;;;;;;5052740;28;20045;-58
2022/01/10 05:12:35;;;;;;;11.77;8.35;;;;;;;;;;5053778;28;20056;-57
2022/01/10 05:15:01;;;;;;;11.32;7.93;;;;;;;;;;5053465;28;20554;-57
2022/01/10 05:17:27;;;;;;;13.48;8.70;;;;;;;;;;5052688;28;20048;-57
2022/01/10 05:19:53;;;;;;;8.82;7.28;;;;;;;;;;5053419;28;20091;-57
2022/01/10 05:22:19;;;;;;;10.98;8.07;;;;;;;;;;5053401;28;20098;-57
2022/01/10 05:24:46;;;;;;;12.50;7.72;;;;;;;;;;5052484;28;20478;-57
2022/01/10 05:27:13;;;;;;;11.02;8.40;;;;;;;;;;5053192;28;20045;-58
2022/01/10 05:29:40;;;;;;;14.20;8.30;;;;;;;;;;5053459;28;20079;-58
2022/01/10 05:32:06;;;;;;;10.10;8.23;;;;;;;;;;5052313;28;20060;-58
2022/01/10 05:34:32;;;;;;;9.75;7.95;;;;;;;;;;5053266;28;20060;-58
2022/01/10 05:36:59;;;;;;;12.60;8.85;;;;;;;;;;5052828;28;20044;-58
2022/01/10 05:39:25;;;;;;;10.13;8.02;;;;;;;;;;5052391;28;20495;-58
2022/01/10 05:41:51;;;;;;;10.98;8.02;;;;;;;;;;5053169;28;20102;-58
2022/01/10 05:44:19;;;;;;;11.38;8.63;;;;;;;;;;5053110;28;20052;-58
2022/01/10 05:46:46;;;;;;;12.38;8.27;;;;;;;;;;5052015;28;20484;-58
2022/01/10 05:49:13;;;;;;;9.70;8.32;;;;;;;;;;5052945;28;20048;-58
2022/01/10 05:51:39;;;;;;;12.93;8.55;;;;;;;;;;5052982;28;20076;-58
2022/01/10 05:54:07;;;;;;;13.48;8.55;;;;;;;;;;5051973;28;20049;-58
2022/01/10 05:56:33;;;;;;;14.10;8.63;;;;;;;;;;5052871;28;20037;-60
2022/01/10 05:58:59;;;;;;;11.70;8.68;;;;;;;;;;5052259;28;20048;-59
2022/01/10 06:01:27;;;;;;;12.95;8.93;;;;;;;;;;5052182;28;20048;-59
2022/01/10 06:03:53;;;;;;;12.10;8.65;;;;;;;;;;5052239;28;20049;-59
2022/01/10 06:06:19;;;;;;;10.40;8.55;;;;;;;;;;5052047;28;20102;-59
2022/01/10 06:08:45;;;;;;;11.63;8.88;;;;;;;;;;5052355;28;20118;-60
2022/01/10 06:11:12;;;;;;;10.77;8.35;;;;;;;;;;5052770;28;20051;-60
2022/01/10 06:13:38;;;;;;;11.13;8.80;;;;;;;;;;5051898;28;20061;-59
2022/01/10 06:16:05;;;;;;;15.18;9.30;;;;;;;;;;5052328;28;20049;-59
2022/01/10 06:18:32;;;;;;;11.43;8.98;;;;;;;;;;5051659;28;20084;-60
2022/01/10 06:20:59;;;;;;;13.80;8.65;;;;;;;;;;5051249;28;20057;-60
2022/01/10 06:23:25;;;;;;;11.93;9.13;;;;;;;;;;5052447;28;20056;-60
2022/01/10 06:25:51;;;;;;;14.57;9.13;;;;;;;;;;5052221;28;20048;-60
2022/01/10 06:28:18;;;;;;;12.07;9.02;;;;;;;;;;5051434;28;20049;-59
2022/01/10 06:30:44;;;;;;;11.07;8.63;;;;;;;;;;5051925;28;20045;-59
2022/01/10 06:33:11;;;;;;;11.13;8.48;;;;;;;;;;5052011;28;20045;-60
2022/01/10 06:35:38;;;;;;;12.80;8.68;;;;;;;;;;5051205;28;20048;-60
2022/01/10 06:38:05;;;;;;;13.63;9.43;;;;;;;;;;5052032;28;20449;-60
2022/01/10 06:40:31;;;;;;;13.73;8.95;;;;;;;;;;5052006;28;20474;-59
2022/01/10 06:42:57;;;;;;;13.82;9.55;;;;;;;;;;5050935;28;20587;-60
2022/01/10 06:45:24;;;;;;;11.80;8.88;;;;;;;;;;5051792;28;20049;-60
2022/01/10 06:47:50;;;;;;;12.68;9.30;;;;;;;;;;5051627;28;20049;-60
2022/01/10 06:50:17;;;;;;;11.77;8.95;;;;;;;;;;5050778;28;20057;-60
2022/01/10 06:52:44;;;;;;;13.55;8.85;;;;;;;;;;5051551;28;20045;-59
2022/01/10 06:55:10;;;;;;;12.48;8.23;;;;;;;;;;5051726;28;20045;-59
2022/01/10 06:57:37;;;;;;;14.73;9.70;;;;;;;;;;5051137;28;20075;-59
2022/01/10 07:00:05;;;;;;;13.10;9.77;;;;;;;;;;5051235;28;20107;-59
2022/01/10 07:02:31;;;;;;;14.82;9.88;;;;;;;;;;5050873;28;20095;-59
2022/01/10 07:04:57;;;;;;;10.35;8.98;;;;;;;;;;5051079;28;20049;-59
2022/01/10 07:07:23;;;;;;;11.38;9.57;;;;;;;;;;5051597;28;20049;-59
2022/01/10 07:09:51;;;;;;;12.75;8.88;;;;;;;;;;5050275;28;20889;-59
2022/01/10 07:12:17;;;;;;;11.27;9.05;;;;;;;;;;5051381;28;20048;-59
2022/01/10 07:14:43;;;;;;;12.48;9.63;;;;;;;;;;5051078;28;20053;-59
2022/01/10 07:17:10;;;;;;;13.02;9.85;;;;;;;;;;5050704;28;20041;-59
2022/01/10 07:19:36;;;;;;;11.27;8.82;;;;;;;;;;5051462;28;20118;-59
2022/01/10 07:22:03;;;;;;;11.93;9.73;;;;;;;;;;5051167;28;20454;-59
2022/01/10 07:24:29;;;;;;;11.32;9.55;;;;;;;;;;5050511;28;20052;-59
2022/01/10 07:26:57;;;;;;;14.50;9.40;;;;;;;;;;5050828;28;20045;-59
2022/01/10 07:29:23;;;;;;;13.27;10.30;;;;;;;;;;5051113;28;20041;-59
2022/01/10 07:31:49;;;;;;;13.35;10.23;;;;;;;;;;5049921;28;20431;-59
2022/01/10 07:34:15;;;;;;;12.77;9.75;;;;;;;;;;5051047;28;20741;-60
2022/01/10 07:36:42;;;;;;;12.82;9.85;;;;;;;;;;5051424;28;20076;-59
2022/01/10 07:39:08;;;;;;;12.65;10.15;;;;;;;;;;5050366;28;20049;-59
2022/01/10 07:41:34;;;;;;;14.32;10.43;;;;;;;;;;5050900;28;20103;-60
2022/01/10 07:44:02;;;;;;;13.73;10.43;;;;;;;;;;5051061;28;20095;-60
2022/01/10 07:46:28;;;;;;;12.82;10.02;;;;;;;;;;5050232;28;20083;-59
2022/01/10 07:48:55;;;;;;;12.93;10.02;;;;;;;;;;5051084;28;20103;-59
2022/01/10 07:51:21;;;;;;;12.65;10.00;;;;;;;;;;5050739;28;20447;-59
2022/01/10 07:53:48;;;;;;;12.75;9.95;;;;;;;;;;5050264;28;20045;-59
2022/01/10 07:56:14;;;;;;;12.23;9.45;;;;;;;;;;5050988;28;20049;-60
2022/01/10 07:58:40;;;;;;;13.57;9.85;;;;;;;;;;5051083;28;20102;-59
2022/01/10 08:01:08;;;;;;;14.02;10.63;;;;;;;;;;5050024;28;20111;-60
2022/01/10 08:03:34;;;;;;;13.98;9.93;;;;;;;;;;5051293;28;20045;-60
2022/01/10 08:06:00;;;;;;;12.52;10.20;;;;;;;;;;5049821;28;20053;-60
2022/01/10 08:08:27;;;;;;;16.00;10.88;;;;;;;;;;5050823;28;20045;-59
2022/01/10 08:10:53;;;;;;;13.52;10.15;;;;;;;;;;5050384;28;20056;-60
2022/01/10 08:13:19;;;;;;;11.82;9.98;;;;;;;;;;5050118;28;20049;-60
2022/01/10 08:15:46;;;;;;;12.88;10.27;;;;;;;;;;5050895;28;20103;-59
2022/01/10 08:18:13;;;;;;;18.10;10.70;;;;;;;;;;5050591;28;20045;-59
2022/01/10 08:20:39;;;;;;;12.30;10.50;;;;;;;;;;5049592;28;20049;-59
2022/01/10 08:23:06;;;;;;;12.23;10.10;;;;;;;;;;5050388;28;20041;-59
2022/01/10 08:25:32;;;;;;;12.27;10.07;;;;;;;;;;5050937;28;20111;-59
2022/01/10 08:27:58;;;;;;;12.75;10.88;;;;;;;;;;5049435;28;20106;-59
2022/01/10 08:30:24;;;;;;;12.73;10.52;;;;;;;;;;5051038;28;20053;-60
2022/01/10 08:32:50;;;;;;;14.43;11.15;;;;;;;;;;5050419;28;20458;-59
2022/01/10 08:35:18;;;;;;;15.18;10.65;;;;;;;;;;5049666;28;20154;-59
2022/01/10 08:37:45;;;;;;;12.18;10.52;;;;;;;;;;5050321;28;20049;-58
2022/01/10 08:40:12;;;;;;;12.73;10.80;;;;;;;;;;5050772;28;20037;-58
2022/01/10 08:42:39;;;;;;;15.20;11.60;;;;;;;;;;5053530;28;20045;-59
2022/01/10 08:45:08;;;;;;;13.55;11.13;;;;;;;;;;5054374;28;20049;-58
2022/01/10 08:47:34;;;;;;;13.68;11.40;;;;;;;;;;5054380;28;20080;-59
2022/01/10 08:50:00;;;;;;;13.35;10.98;;;;;;;;;;5053412;28;20045;-59
2022/01/10 08:52:28;;;;;;;17.75;11.63;;;;;;;;;;5036602;28;20100;-58
2022/01/10 08:54:54;;;;;;;16.33;11.55;;;;;;;;;;5033865;28;20049;-58
2022/01/10 08:57:20;;;;;;;13.43;11.20;;;;;;;;;;5050132;28;20546;-58
2022/01/10 08:59:46;;;;;;;15.50;10.82;;;;;;;;;;5053618;28;20072;-58
2022/01/10 09:02:13;;;;;;;15.82;12.45;;;;;;;;;;5053050;28;20053;-58
2022/01/10 09:04:40;;;;;;;17.98;12.48;;;;;;;;;;5053070;28;20056;-58
2022/01/10 09:07:08;;;;;;;16.45;12.02;;;;;;;;;;5053156;28;20048;-58
2022/01/10 09:09:35;;;;;;;17.45;12.48;;;;;;;;;;5052670;28;20136;-58
2022/01/10 09:12:02;;;;;;;16.02;12.02;;;;;;;;;;5053433;28;20624;-58
2022/01/10 09:14:28;;;;;;;16.63;13.30;;;;;;;;;;5053736;28;20554;-59
2022/01/10 09:16:55;;;;;;;29.92;20.67;;;;;;;;;;5052536;28;20495;-57
2022/01/10 09:19:21;;;;;;;21.10;15.45;;;;;;;;;;5053595;28;20049;-58
2022/01/10 09:21:48;;;;;;;29.08;19.67;;;;;;;;;;5052768;28;20049;-58
2022/01/10 09:24:14;;;;;;;25.48;17.60;;;;;;;;;;5052419;28;20480;-58
2022/01/10 09:26:42;;;;;;;35.70;21.77;;;;;;;;;;5053802;28;20048;-58
2022/01/10 09:29:08;;;;;;;27.75;20.15;;;;;;;;;;5053243;28;20480;-58
2022/01/10 09:31:35;;;;;;;27.40;18.85;;;;;;;;;;5051571;28;20045;-58
2022/01/10 09:34:02;;;;;;;27.23;19.08;;;;;;;;;;5052275;28;20544;-59
2022/01/10 09:36:29;;;;;;;28.02;18.15;;;;;;;;;;5052713;28;20048;-58
2022/01/10 09:38:57;;;;;;;29.70;18.65;;;;;;;;;;5051835;28;20044;-58
2022/01/10 09:41:24;;;;;;;28.05;19.90;;;;;;;;;;5053216;28;20515;-58
2022/01/10 09:43:53;;;;;;;25.85;18.83;;;;;;;;;;5052781;28;20049;-58
2022/01/10 09:46:19;;;;;;;27.17;19.17;;;;;;;;;;5052371;28;20045;-58
2022/01/10 09:48:46;;;;;;;25.55;18.05;;;;;;;;;;5052528;28;20399;-59
2022/01/10 09:51:12;;;;;;;24.35;17.95;;;;;;;;;;5052523;28;20049;-58
2022/01/10 09:53:38;;;;;;;24.90;17.60;;;;;;;;;;5051463;28;20045;-60
2022/01/10 09:56:05;;;;;;;26.20;18.08;;;;;;;;;;5052569;28;20491;-59
2022/01/10 09:58:31;;;;;;;26.02;18.08;;;;;;;;;;5052179;28;20056;-59
2022/01/10 10:00:59;;;;;;;24.35;17.77;;;;;;;;;;5052379;28;20048;-59
2022/01/10 10:03:26;;;;;;;25.70;18.30;;;;;;;;;;5052705;28;20041;-59
2022/01/10 10:05:52;;;;;;;22.40;17.48;;;;;;;;;;5050844;28;20053;-59
2022/01/10 10:08:20;;;;;;;25.50;18.08;;;;;;;;;;5052686;28;20483;-59
2022/01/10 10:10:46;;;;;;;22.27;16.88;;;;;;;;;;5051858;28;20111;-59
2022/01/10 10:13:14;;;;;;;23.73;16.98;;;;;;;;;;5051961;28;20122;-59
2022/01/10 10:15:42;;;;;;;23.00;16.90;;;;;;;;;;5052374;28;20048;-59
2022/01/10 10:18:10;;;;;;;24.38;17.35;;;;;;;;;;5052529;28;20048;-59
2022/01/10 10:20:37;;;;;;;24.17;17.85;;;;;;;;;;5050968;28;20053;-59
2022/01/10 10:23:03;;;;;;;24.63;16.83;;;;;;;;;;5052200;28;20094;-59
2022/01/10 10:25:32;;;;;;;21.42;16.30;;;;;;;;;;5052308;28;20052;-59
2022/01/10 10:27:58;;;;;;;22.35;16.75;;;;;;;;;;5051547;28;20045;-59
2022/01/10 10:30:27;;;;;;;22.20;15.93;;;;;;;;;;5052023;28;20446;-59
2022/01/10 10:33:09;;;;;;;22.38;16.70;;;;;;;;;;5051618;28;20079;-59
2022/01/10 10:35:38;;;;;;;28.15;18.27;;;;;;;;;;5051546;28;20037;-59
2022/01/10 10:38:04;;;;;;;28.23;18.80;;;;;;;;;;5051946;28;20529;-58
2022/01/10 10:40:30;;;;;;;28.23;19.15;;;;;;;;;;5051387;28;20045;-58
2022/01/10 10:42:57;;;;;;;27.70;18.98;;;;;;;;;;5051782;28;20520;-60
2022/01/10 10:45:25;;;;;;;25.77;18.15;;;;;;;;;;5052043;28;20091;-58
2022/01/10 10:47:51;;;;;;;29.52;19.38;;;;;;;;;;5050998;28;20049;-58
2022/01/10 10:50:17;;;;;;;26.70;18.10;;;;;;;;;;5051932;28;20052;-58
2022/01/10 10:52:45;;;;;;;27.83;18.13;;;;;;;;;;5051774;28;20095;-58
2022/01/10 10:55:12;;;;;;;25.83;18.10;;;;;;;;;;5051092;28;20476;-58
2022/01/10 10:57:39;;;;;;;25.48;17.92;;;;;;;;;;5052369;28;20049;-58
2022/01/10 11:00:07;;;;;;;24.27;17.63;;;;;;;;;;5051412;28;20049;-58
2022/01/10 11:02:34;;;;;;;26.55;17.77;;;;;;;;;;5051173;28;20049;-58
2022/01/10 11:05:03;;;;;;;24.38;17.65;;;;;;;;;;5051108;28;20084;-58
2022/01/10 11:07:32;;;;;;;25.50;16.60;;;;;;;;;;5051719;28;20118;-58
2022/01/10 11:09:59;;;;;;;24.55;17.52;;;;;;;;;;5050541;28;20431;-58
2022/01/10 11:12:26;;;;;;;21.33;16.17;;;;;;;;;;5051384;28;20052;-58
2022/01/10 11:14:54;;;;;;;24.10;17.30;;;;;;;;;;5051690;28;20106;-58
2022/01/10 11:17:21;;;;;;;22.77;16.25;;;;;;;;;;5050726;28;20485;-58
2022/01/10 11:20:02;;;;;;;23.70;17.20;;;;;;;;;;5051388;28;20096;-58
2022/01/10 11:22:30;;;;;;;22.98;16.48;;;;;;;;;;5050754;28;20471;-58
2022/01/10 11:24:56;;;;;;;22.42;16.20;;;;;;;;;;5050329;28;20388;-58
2022/01/10 11:27:31;;;;;;;20.40;15.57;;;;;;;;;;5051598;28;20099;-58
2022/01/10 11:29:58;;;;;;;24.53;16.73;;;;;;;;;;5050635;28;20048;-58
2022/01/10 11:32:39;;;;;;;23.63;15.93;;;;;;;;;;5051196;28;20123;-58
2022/01/10 11:35:06;;;;;;;25.45;16.95;;;;;;;;;;5050251;28;20041;-58
2022/01/10 11:37:32;;;;;;;22.90;16.73;;;;;;;;;;5050350;28;20488;-58
2022/01/10 11:39:58;;;;;;;22.27;16.25;;;;;;;;;;5051190;28;20091;-58
2022/01/10 11:42:25;;;;;;;20.45;15.57;;;;;;;;;;5051249;28;20106;-58
2022/01/10 11:45:12;;;;;;;20.83;15.20;;;;;;;;;;5050293;28;20461;-58
2022/01/10 11:47:53;;;;;;;20.45;15.45;;;;;;;;;;5044222;28;20049;-58
2022/01/10 11:50:27;;;;;;;22.25;15.38;;;;;;;;;;5050460;28;20049;-59
2022/01/10 11:52:55;;;;;;;19.95;14.55;;;;;;;;;;5050104;28;20053;-58
2022/01/10 11:55:30;;;;;;;23.10;15.55;;;;;;;;;;5051371;28;20122;-59
2022/01/10 11:58:02;;;;;;;31.65;16.15;;;;;;;;;;5050074;28;20076;-58
2022/01/10 12:00:34;;;;;;;26.80;16.95;;;;;;;;;;5050920;28;20546;-59
2022/01/10 12:03:00;;;;;;;26.48;16.38;;;;;;;;;;5050841;28;20044;-59
2022/01/10 12:05:28;;;;;;;44.67;28.02;;;;;;;;;;5046204;28;20049;-59
2022/01/10 12:07:54;;;;;;;26.42;16.63;;;;;;;;;;5050438;28;20045;-59
2022/01/10 12:10:20;;;;;;;34.85;22.92;;;;;;;;;;5050810;28;20045;-59
2022/01/10 12:12:50;;;;;;;53.85;29.55;;;;;;;;;;5049441;28;20048;-58
2022/01/10 12:15:16;;;;;;;34.67;22.77;;;;;;;;;;5051111;28;20041;-58
2022/01/10 12:17:42;;;;;;;45.72;28.20;;;;;;;;;;5054445;28;20049;-58
2022/01/10 12:20:09;;;;;;;39.22;24.90;;;;;;;;;;5053679;28;20098;-58
2022/01/10 12:22:38;;;;;;;37.47;24.20;;;;;;;;;;5054309;28;20095;-58
2022/01/10 12:25:08;;;;;;;36.17;24.08;;;;;;;;;;5051770;28;20047;-59
2022/01/10 12:27:34;;;;;;;41.95;25.70;;;;;;;;;;5054054;28;20037;-59
2022/01/10 12:30:01;;;;;;;33.67;22.88;;;;;;;;;;5054158;28;20079;-58
2022/01/10 12:32:29;;;;;;;37.95;23.92;;;;;;;;;;5054686;28;20094;-58
2022/01/10 12:34:55;;;;;;;39.97;24.58;;;;;;;;;;5052814;28;20040;-59
2022/01/10 12:37:24;;;;;;;36.95;23.25;;;;;;;;;;5054588;28;20049;-58
2022/01/10 12:39:51;;;;;;;38.42;23.48;;;;;;;;;;5053921;28;20488;-58
2022/01/10 12:42:18;;;;;;;38.72;23.33;;;;;;;;;;5053522;28;20041;-58
2022/01/10 12:44:47;;;;;;;35.28;22.98;;;;;;;;;;5054030;28;20045;-59
2022/01/10 12:47:14;;;;;;;34.28;23.08;;;;;;;;;;5053516;28;20041;-59
2022/01/10 12:49:44;;;;;;;34.10;22.33;;;;;;;;;;5053684;28;20094;-58
2022/01/10 12:52:11;;;;;;;32.58;22.88;;;;;;;;;;5054082;28;20155;-58
2022/01/10 12:54:37;;;;;;;32.17;21.48;;;;;;;;;;5053144;28;20041;-59
2022/01/10 12:57:05;;;;;;;33.20;21.35;;;;;;;;;;5053973;28;20102;-58
2022/01/10 12:59:33;;;;;;;34.25;21.77;;;;;;;;;;5053930;28;20056;-58
2022/01/10 13:02:00;;;;;;;35.90;22.25;;;;;;;;;;5053241;28;20056;-58
2022/01/10 13:04:27;;;;;;;31.60;21.42;;;;;;;;;;5053068;28;20052;-58
2022/01/10 13:06:55;;;;;;;28.27;19.90;;;;;;;;;;5053924;28;20041;-58
2022/01/10 13:09:21;;;;;;;30.50;20.23;;;;;;;;;;5052644;28;20094;-58
2022/01/10 13:12:00;;;;;;;29.73;20.38;;;;;;;;;;5053707;28;20140;-57
2022/01/10 13:14:34;;;;;;;27.10;19.58;;;;;;;;;;5053654;28;20064;-57
2022/01/10 13:17:05;;;;;;;30.88;19.80;;;;;;;;;;5052960;28;20049;-57
2022/01/10 13:19:31;;;;;;;30.27;19.95;;;;;;;;;;5053713;28;20051;-58
2022/01/10 13:21:59;;;;;;;29.35;20.40;;;;;;;;;;5053426;28;20102;-58
2022/01/10 13:24:26;;;;;;;27.63;19.65;;;;;;;;;;5052900;28;20041;-57
2022/01/10 13:27:03;;;;;;;30.55;21.00;;;;;;;;;;5053458;28;20045;-57
2022/01/10 13:29:35;;;;;;;30.55;19.35;;;;;;;;;;5052881;28;20060;-57
2022/01/10 13:32:35;;;;;;;26.33;19.00;;;;;;;;;;5053185;28;20102;-57
2022/01/10 13:35:14;;;;;;;29.90;19.75;;;;;;;;;;4972075;28;20058;-58
2022/01/10 13:37:41;;;;;;;25.88;18.88;;;;;;;;;;4971744;28;20042;-57
2022/01/10 13:40:09;;;;;;;25.77;19.52;;;;;;;;;;5015203;28;20049;-58
2022/01/10 13:42:41;;;;;;;26.67;19.00;;;;;;;;;;5053822;28;20099;-58
2022/01/10 13:45:10;;;;;;;28.98;19.17;;;;;;;;;;5052552;28;20041;-58
2022/01/10 13:48:06;;;;;;;26.80;18.50;;;;;;;;;;5053390;28;20242;-57
2022/01/10 13:50:36;;;;;;;26.55;18.98;;;;;;;;;;4971392;28;20046;-58
2022/01/10 13:53:04;;;;;;;26.15;18.50;;;;;;;;;;5034939;28;20127;-58
2022/01/10 13:55:30;;;;;;;26.08;18.65;;;;;;;;;;5053156;28;20045;-58
2022/01/10 13:57:56;;;;;;;26.45;18.27;;;;;;;;;;5052120;28;20041;-59
2022/01/10 14:00:25;;;;;;;24.92;17.70;;;;;;;;;;5052786;28;20064;-57
2022/01/10 14:02:52;;;;;;;26.65;18.23;;;;;;;;;;5052620;28;20475;-59
2022/01/10 14:05:19;;;;;;;25.98;18.73;;;;;;;;;;5051304;28;20037;-58
2022/01/10 14:07:45;;;;;;;25.85;18.33;;;;;;;;;;5051607;28;20057;-58
2022/01/10 14:10:11;;;;;;;24.55;18.30;;;;;;;;;;5052451;28;20041;-58
2022/01/10 14:12:37;;;;;;;25.80;18.70;;;;;;;;;;5051848;28;20044;-58
2022/01/10 14:15:04;;;;;;;24.73;17.95;;;;;;;;;;5052582;28;20045;-58
2022/01/10 14:17:31;;;;;;;26.45;18.92;;;;;;;;;;5052558;28;20054;-58
2022/01/10 14:19:57;;;;;;;24.08;17.30;;;;;;;;;;5051572;28;20102;-58
2022/01/10 14:22:24;;;;;;;24.50;18.13;;;;;;;;;;5052420;28;20055;-58
2022/01/10 14:24:50;;;;;;;23.98;17.73;;;;;;;;;;5052402;28;20099;-59
2022/01/10 14:27:16;;;;;;;24.95;17.08;;;;;;;;;;5051791;28;20106;-58
2022/01/10 14:29:42;;;;;;;21.80;16.88;;;;;;;;;;5052234;28;20101;-58
2022/01/10 14:32:09;;;;;;;24.00;17.15;;;;;;;;;;5052235;28;20049;-59
2022/01/10 14:34:37;;;;;;;24.33;18.17;;;;;;;;;;5051592;28;20041;-58